sensor_id;sensor_type;location;lat;lon;timestamp;P1;durP1;ratioP1;P2;durP2;ratioP2
69629;SDS011;56857;52.212;5.496;2022-07-23T00:01:14;6.40;;;2.95;;
69629;SDS011;56857;52.212;5.496;2022-07-23T00:03:39;6.90;;;2.83;;
69629;SDS011;56857;52.212;5.496;2022-07-23T00:06:05;9.60;;;3.97;;
69629;SDS011;56857;52.212;5.496;2022-07-23T00:08:30;6.78;;;2.88;;
69629;SDS011;56857;52.212;5.496;2022-07-23T00:10:56;7.53;;;3.03;;
69629;SDS011;56857;52.212;5.496;2022-07-23T00:13:21;7.25;;;3.03;;
69629;SDS011;56857;52.212;5.496;2022-07-23T00:15:46;8.45;;;3.88;;
69629;SDS011;56857;52.212;5.496;2022-07-23T00:18:12;5.57;;;2.90;;
69629;SDS011;56857;52.212;5.496;2022-07-23T00:20:37;6.68;;;3.30;;
69629;SDS011;56857;52.212;5.496;2022-07-23T00:23:02;7.57;;;2.90;;
69629;SDS011;56857;52.212;5.496;2022-07-23T00:25:28;6.32;;;2.85;;
69629;SDS011;56857;52.212;5.496;2022-07-23T00:27:53;5.82;;;2.70;;
69629;SDS011;56857;52.212;5.496;2022-07-23T00:30:18;6.15;;;3.15;;
69629;SDS011;56857;52.212;5.496;2022-07-23T00:32:47;8.63;;;3.20;;
69629;SDS011;56857;52.212;5.496;2022-07-23T00:35:14;5.80;;;3.08;;
69629;SDS011;56857;52.212;5.496;2022-07-23T00:37:40;8.77;;;3.47;;
69629;SDS011;56857;52.212;5.496;2022-07-23T00:40:05;6.95;;;3.00;;
69629;SDS011;56857;52.212;5.496;2022-07-23T00:42:31;6.70;;;3.08;;
69629;SDS011;56857;52.212;5.496;2022-07-23T00:44:57;7.20;;;3.28;;
69629;SDS011;56857;52.212;5.496;2022-07-23T00:47:22;6.00;;;3.50;;
69629;SDS011;56857;52.212;5.496;2022-07-23T00:49:48;7.07;;;3.83;;
69629;SDS011;56857;52.212;5.496;2022-07-23T00:52:13;7.07;;;3.72;;
69629;SDS011;56857;52.212;5.496;2022-07-23T00:54:38;7.60;;;3.63;;
69629;SDS011;56857;52.212;5.496;2022-07-23T00:57:05;6.55;;;3.28;;
69629;SDS011;56857;52.212;5.496;2022-07-23T00:59:30;7.90;;;3.53;;
69629;SDS011;56857;52.212;5.496;2022-07-23T01:01:56;6.60;;;3.47;;
69629;SDS011;56857;52.212;5.496;2022-07-23T01:04:21;8.40;;;3.70;;
69629;SDS011;56857;52.212;5.496;2022-07-23T01:06:46;7.15;;;3.53;;
69629;SDS011;56857;52.212;5.496;2022-07-23T01:09:12;6.07;;;3.05;;
69629;SDS011;56857;52.212;5.496;2022-07-23T01:11:37;8.27;;;4.10;;
69629;SDS011;56857;52.212;5.496;2022-07-23T01:16:35;6.32;;;3.78;;
69629;SDS011;56857;52.212;5.496;2022-07-23T01:19:00;7.30;;;3.65;;
69629;SDS011;56857;52.212;5.496;2022-07-23T01:21:26;9.00;;;4.32;;
69629;SDS011;56857;52.212;5.496;2022-07-23T01:23:51;6.60;;;3.38;;
69629;SDS011;56857;52.212;5.496;2022-07-23T01:26:16;6.53;;;3.45;;
69629;SDS011;56857;52.212;5.496;2022-07-23T01:28:42;7.57;;;3.55;;
69629;SDS011;56857;52.212;5.496;2022-07-23T01:31:07;6.90;;;3.75;;
69629;SDS011;56857;52.212;5.496;2022-07-23T01:33:33;7.60;;;3.63;;
69629;SDS011;56857;52.212;5.496;2022-07-23T01:35:58;6.70;;;3.45;;
69629;SDS011;56857;52.212;5.496;2022-07-23T01:38:23;5.75;;;3.13;;
69629;SDS011;56857;52.212;5.496;2022-07-23T01:40:49;7.72;;;3.70;;
69629;SDS011;56857;52.212;5.496;2022-07-23T01:43:14;5.72;;;3.58;;
69629;SDS011;56857;52.212;5.496;2022-07-23T01:45:39;6.85;;;3.35;;
69629;SDS011;56857;52.212;5.496;2022-07-23T01:48:05;8.80;;;3.55;;
69629;SDS011;56857;52.212;5.496;2022-07-23T01:50:31;6.22;;;3.63;;
69629;SDS011;56857;52.212;5.496;2022-07-23T01:52:56;7.00;;;3.60;;
69629;SDS011;56857;52.212;5.496;2022-07-23T01:55:21;5.68;;;3.35;;
69629;SDS011;56857;52.212;5.496;2022-07-23T01:57:47;7.35;;;3.38;;
69629;SDS011;56857;52.212;5.496;2022-07-23T02:00:12;6.65;;;3.72;;
69629;SDS011;56857;52.212;5.496;2022-07-23T02:02:37;7.40;;;4.00;;
69629;SDS011;56857;52.212;5.496;2022-07-23T02:05:03;6.72;;;3.60;;
69629;SDS011;56857;52.212;5.496;2022-07-23T02:07:28;13.10;;;3.65;;
69629;SDS011;56857;52.212;5.496;2022-07-23T02:09:53;8.95;;;3.90;;
69629;SDS011;56857;52.212;5.496;2022-07-23T02:12:19;7.63;;;3.53;;
69629;SDS011;56857;52.212;5.496;2022-07-23T02:14:44;6.75;;;3.60;;
69629;SDS011;56857;52.212;5.496;2022-07-23T02:17:09;8.30;;;4.03;;
69629;SDS011;56857;52.212;5.496;2022-07-23T02:19:35;8.18;;;3.65;;
69629;SDS011;56857;52.212;5.496;2022-07-23T02:22:00;6.45;;;3.30;;
69629;SDS011;56857;52.212;5.496;2022-07-23T02:24:25;6.82;;;3.42;;
69629;SDS011;56857;52.212;5.496;2022-07-23T02:26:51;7.60;;;3.30;;
69629;SDS011;56857;52.212;5.496;2022-07-23T02:29:16;6.93;;;3.55;;
69629;SDS011;56857;52.212;5.496;2022-07-23T02:31:41;7.32;;;3.65;;
69629;SDS011;56857;52.212;5.496;2022-07-23T02:34:07;5.97;;;3.53;;
69629;SDS011;56857;52.212;5.496;2022-07-23T02:36:33;6.25;;;3.15;;
69629;SDS011;56857;52.212;5.496;2022-07-23T02:38:58;5.45;;;3.10;;
69629;SDS011;56857;52.212;5.496;2022-07-23T02:41:24;5.85;;;2.78;;
69629;SDS011;56857;52.212;5.496;2022-07-23T02:43:49;5.78;;;2.90;;
69629;SDS011;56857;52.212;5.496;2022-07-23T02:46:14;5.07;;;2.35;;
69629;SDS011;56857;52.212;5.496;2022-07-23T02:48:40;5.25;;;2.28;;
69629;SDS011;56857;52.212;5.496;2022-07-23T02:51:05;5.55;;;2.95;;
69629;SDS011;56857;52.212;5.496;2022-07-23T02:53:31;4.93;;;2.30;;
69629;SDS011;56857;52.212;5.496;2022-07-23T02:55:56;5.63;;;3.03;;
69629;SDS011;56857;52.212;5.496;2022-07-23T02:58:21;7.07;;;2.95;;
69629;SDS011;56857;52.212;5.496;2022-07-23T03:00:46;6.88;;;3.00;;
69629;SDS011;56857;52.212;5.496;2022-07-23T03:03:12;5.28;;;2.90;;
69629;SDS011;56857;52.212;5.496;2022-07-23T03:05:37;5.50;;;3.03;;
69629;SDS011;56857;52.212;5.496;2022-07-23T03:08:02;5.45;;;2.42;;
69629;SDS011;56857;52.212;5.496;2022-07-23T03:10:28;6.28;;;3.20;;
69629;SDS011;56857;52.212;5.496;2022-07-23T03:12:53;5.43;;;2.78;;
69629;SDS011;56857;52.212;5.496;2022-07-23T03:15:19;6.13;;;3.20;;
69629;SDS011;56857;52.212;5.496;2022-07-23T03:17:44;6.80;;;3.15;;
69629;SDS011;56857;52.212;5.496;2022-07-23T03:20:10;6.32;;;2.67;;
69629;SDS011;56857;52.212;5.496;2022-07-23T03:22:35;6.72;;;3.30;;
69629;SDS011;56857;52.212;5.496;2022-07-23T03:25:00;5.78;;;3.10;;
69629;SDS011;56857;52.212;5.496;2022-07-23T03:27:27;5.97;;;2.85;;
69629;SDS011;56857;52.212;5.496;2022-07-23T03:29:54;5.20;;;3.00;;
69629;SDS011;56857;52.212;5.496;2022-07-23T03:32:22;6.82;;;3.30;;
69629;SDS011;56857;52.212;5.496;2022-07-23T03:34:48;6.55;;;3.58;;
69629;SDS011;56857;52.212;5.496;2022-07-23T03:37:13;6.15;;;3.40;;
69629;SDS011;56857;52.212;5.496;2022-07-23T03:39:39;6.18;;;3.30;;
69629;SDS011;56857;52.212;5.496;2022-07-23T03:42:04;5.97;;;2.90;;
69629;SDS011;56857;52.212;5.496;2022-07-23T03:44:30;6.20;;;3.53;;
69629;SDS011;56857;52.212;5.496;2022-07-23T03:46:55;6.20;;;3.42;;
69629;SDS011;56857;52.212;5.496;2022-07-23T03:49:21;7.60;;;3.33;;
69629;SDS011;56857;52.212;5.496;2022-07-23T03:51:46;10.75;;;4.25;;
69629;SDS011;56857;52.212;5.496;2022-07-23T03:54:11;7.38;;;3.63;;
69629;SDS011;56857;52.212;5.496;2022-07-23T03:56:37;6.05;;;3.13;;
69629;SDS011;56857;52.212;5.496;2022-07-23T03:59:03;6.25;;;3.30;;
69629;SDS011;56857;52.212;5.496;2022-07-23T04:01:28;6.50;;;3.08;;
69629;SDS011;56857;52.212;5.496;2022-07-23T04:03:53;7.53;;;2.95;;
69629;SDS011;56857;52.212;5.496;2022-07-23T04:06:19;6.10;;;2.80;;
69629;SDS011;56857;52.212;5.496;2022-07-23T04:08:44;5.40;;;2.50;;
69629;SDS011;56857;52.212;5.496;2022-07-23T04:11:09;4.88;;;2.20;;
69629;SDS011;56857;52.212;5.496;2022-07-23T04:13:34;4.25;;;2.40;;
69629;SDS011;56857;52.212;5.496;2022-07-23T04:16:00;6.32;;;3.40;;
69629;SDS011;56857;52.212;5.496;2022-07-23T04:18:25;5.35;;;2.65;;
69629;SDS011;56857;52.212;5.496;2022-07-23T04:20:51;5.45;;;2.40;;
69629;SDS011;56857;52.212;5.496;2022-07-23T04:23:17;5.95;;;3.03;;
69629;SDS011;56857;52.212;5.496;2022-07-23T04:25:42;6.78;;;2.97;;
69629;SDS011;56857;52.212;5.496;2022-07-23T04:28:07;6.03;;;2.72;;
69629;SDS011;56857;52.212;5.496;2022-07-23T04:30:33;8.20;;;3.10;;
69629;SDS011;56857;52.212;5.496;2022-07-23T04:32:58;6.55;;;3.40;;
69629;SDS011;56857;52.212;5.496;2022-07-23T04:35:23;4.80;;;2.83;;
69629;SDS011;56857;52.212;5.496;2022-07-23T04:37:50;5.32;;;3.00;;
69629;SDS011;56857;52.212;5.496;2022-07-23T04:40:15;5.65;;;2.90;;
69629;SDS011;56857;52.212;5.496;2022-07-23T04:42:41;6.00;;;3.38;;
69629;SDS011;56857;52.212;5.496;2022-07-23T04:45:06;6.00;;;3.40;;
69629;SDS011;56857;52.212;5.496;2022-07-23T04:47:32;7.82;;;3.33;;
69629;SDS011;56857;52.212;5.496;2022-07-23T04:49:57;6.65;;;3.85;;
69629;SDS011;56857;52.212;5.496;2022-07-23T04:52:23;6.07;;;3.58;;
69629;SDS011;56857;52.212;5.496;2022-07-23T04:54:49;6.38;;;3.47;;
69629;SDS011;56857;52.212;5.496;2022-07-23T04:57:15;7.03;;;3.95;;
69629;SDS011;56857;52.212;5.496;2022-07-23T04:59:40;7.30;;;3.60;;
69629;SDS011;56857;52.212;5.496;2022-07-23T05:02:06;7.05;;;3.92;;
69629;SDS011;56857;52.212;5.496;2022-07-23T05:04:31;7.28;;;4.13;;
69629;SDS011;56857;52.212;5.496;2022-07-23T05:06:57;6.90;;;4.57;;
69629;SDS011;56857;52.212;5.496;2022-07-23T05:09:22;8.90;;;4.53;;
69629;SDS011;56857;52.212;5.496;2022-07-23T05:11:48;9.85;;;4.72;;
69629;SDS011;56857;52.212;5.496;2022-07-23T05:14:13;8.52;;;4.20;;
69629;SDS011;56857;52.212;5.496;2022-07-23T05:16:39;7.90;;;4.28;;
69629;SDS011;56857;52.212;5.496;2022-07-23T05:19:04;9.40;;;3.72;;
69629;SDS011;56857;52.212;5.496;2022-07-23T05:21:29;8.18;;;3.92;;
69629;SDS011;56857;52.212;5.496;2022-07-23T05:23:55;9.02;;;3.70;;
69629;SDS011;56857;52.212;5.496;2022-07-23T05:26:21;6.93;;;3.47;;
69629;SDS011;56857;52.212;5.496;2022-07-23T05:28:46;7.43;;;4.07;;
69629;SDS011;56857;52.212;5.496;2022-07-23T05:31:11;8.75;;;4.60;;
69629;SDS011;56857;52.212;5.496;2022-07-23T05:33:37;9.90;;;4.25;;
69629;SDS011;56857;52.212;5.496;2022-07-23T05:36:03;7.97;;;4.47;;
69629;SDS011;56857;52.212;5.496;2022-07-23T05:38:29;9.20;;;5.15;;
69629;SDS011;56857;52.212;5.496;2022-07-23T05:40:55;8.75;;;4.60;;
69629;SDS011;56857;52.212;5.496;2022-07-23T05:43:20;7.75;;;4.07;;
69629;SDS011;56857;52.212;5.496;2022-07-23T05:45:46;7.85;;;4.50;;
69629;SDS011;56857;52.212;5.496;2022-07-23T05:48:11;8.20;;;4.65;;
69629;SDS011;56857;52.212;5.496;2022-07-23T05:50:36;8.75;;;4.68;;
69629;SDS011;56857;52.212;5.496;2022-07-23T05:53:02;8.90;;;4.38;;
69629;SDS011;56857;52.212;5.496;2022-07-23T05:55:27;7.80;;;4.55;;
69629;SDS011;56857;52.212;5.496;2022-07-23T05:57:52;9.40;;;5.00;;
69629;SDS011;56857;52.212;5.496;2022-07-23T06:00:18;9.98;;;5.30;;
69629;SDS011;56857;52.212;5.496;2022-07-23T06:02:43;13.68;;;5.88;;
69629;SDS011;56857;52.212;5.496;2022-07-23T06:05:08;10.70;;;5.55;;
69629;SDS011;56857;52.212;5.496;2022-07-23T06:07:34;13.82;;;4.82;;
69629;SDS011;56857;52.212;5.496;2022-07-23T06:10:00;10.07;;;4.63;;
69629;SDS011;56857;52.212;5.496;2022-07-23T06:12:26;10.60;;;5.00;;
69629;SDS011;56857;52.212;5.496;2022-07-23T06:14:51;8.82;;;5.38;;
69629;SDS011;56857;52.212;5.496;2022-07-23T06:17:16;8.75;;;4.30;;
69629;SDS011;56857;52.212;5.496;2022-07-23T06:19:42;8.80;;;3.80;;
69629;SDS011;56857;52.212;5.496;2022-07-23T06:22:07;9.48;;;5.38;;
69629;SDS011;56857;52.212;5.496;2022-07-23T06:24:32;8.93;;;5.63;;
69629;SDS011;56857;52.212;5.496;2022-07-23T06:26:58;7.68;;;4.60;;
69629;SDS011;56857;52.212;5.496;2022-07-23T06:29:23;10.23;;;5.05;;
69629;SDS011;56857;52.212;5.496;2022-07-23T06:31:48;8.30;;;4.70;;
69629;SDS011;56857;52.212;5.496;2022-07-23T06:34:13;8.30;;;3.80;;
69629;SDS011;56857;52.212;5.496;2022-07-23T06:36:39;6.80;;;3.75;;
69629;SDS011;56857;52.212;5.496;2022-07-23T06:39:04;7.45;;;3.90;;
69629;SDS011;56857;52.212;5.496;2022-07-23T06:41:29;10.10;;;4.43;;
69629;SDS011;56857;52.212;5.496;2022-07-23T06:43:55;9.43;;;4.32;;
69629;SDS011;56857;52.212;5.496;2022-07-23T06:46:20;7.18;;;3.80;;
69629;SDS011;56857;52.212;5.496;2022-07-23T06:48:46;8.43;;;3.35;;
69629;SDS011;56857;52.212;5.496;2022-07-23T06:51:11;6.13;;;2.70;;
69629;SDS011;56857;52.212;5.496;2022-07-23T06:53:36;7.00;;;2.45;;
69629;SDS011;56857;52.212;5.496;2022-07-23T06:56:05;6.07;;;2.88;;
69629;SDS011;56857;52.212;5.496;2022-07-23T06:58:31;7.57;;;2.42;;
69629;SDS011;56857;52.212;5.496;2022-07-23T07:00:56;4.30;;;2.10;;
69629;SDS011;56857;52.212;5.496;2022-07-23T07:03:22;5.15;;;2.53;;
69629;SDS011;56857;52.212;5.496;2022-07-23T07:05:47;4.43;;;1.98;;
69629;SDS011;56857;52.212;5.496;2022-07-23T07:08:12;4.22;;;1.90;;
69629;SDS011;56857;52.212;5.496;2022-07-23T07:10:38;4.85;;;2.38;;
69629;SDS011;56857;52.212;5.496;2022-07-23T07:13:03;8.10;;;2.10;;
69629;SDS011;56857;52.212;5.496;2022-07-23T07:15:28;4.50;;;1.85;;
69629;SDS011;56857;52.212;5.496;2022-07-23T07:17:53;6.53;;;2.15;;
69629;SDS011;56857;52.212;5.496;2022-07-23T07:20:19;5.90;;;2.28;;
69629;SDS011;56857;52.212;5.496;2022-07-23T07:22:44;6.07;;;2.10;;
69629;SDS011;56857;52.212;5.496;2022-07-23T07:25:10;4.55;;;1.95;;
69629;SDS011;56857;52.212;5.496;2022-07-23T07:27:35;3.45;;;1.83;;
69629;SDS011;56857;52.212;5.496;2022-07-23T07:30:00;4.95;;;1.95;;
69629;SDS011;56857;52.212;5.496;2022-07-23T07:32:27;7.22;;;2.30;;
69629;SDS011;56857;52.212;5.496;2022-07-23T07:34:52;4.80;;;2.13;;
69629;SDS011;56857;52.212;5.496;2022-07-23T07:37:17;4.47;;;2.60;;
69629;SDS011;56857;52.212;5.496;2022-07-23T07:39:42;6.05;;;2.00;;
69629;SDS011;56857;52.212;5.496;2022-07-23T07:42:08;5.93;;;1.77;;
69629;SDS011;56857;52.212;5.496;2022-07-23T07:44:33;5.65;;;2.17;;
69629;SDS011;56857;52.212;5.496;2022-07-23T07:46:58;5.82;;;2.33;;
69629;SDS011;56857;52.212;5.496;2022-07-23T07:49:24;3.85;;;2.03;;
69629;SDS011;56857;52.212;5.496;2022-07-23T07:51:49;4.03;;;1.90;;
69629;SDS011;56857;52.212;5.496;2022-07-23T07:54:14;4.93;;;2.08;;
69629;SDS011;56857;52.212;5.496;2022-07-23T07:56:40;5.88;;;1.67;;
69629;SDS011;56857;52.212;5.496;2022-07-23T07:59:05;5.40;;;1.90;;
69629;SDS011;56857;52.212;5.496;2022-07-23T08:01:31;6.45;;;2.10;;
69629;SDS011;56857;52.212;5.496;2022-07-23T08:03:56;4.22;;;1.80;;
69629;SDS011;56857;52.212;5.496;2022-07-23T08:06:21;5.80;;;2.42;;
69629;SDS011;56857;52.212;5.496;2022-07-23T08:08:47;5.28;;;2.40;;
69629;SDS011;56857;52.212;5.496;2022-07-23T08:11:13;4.03;;;1.77;;
69629;SDS011;56857;52.212;5.496;2022-07-23T08:13:38;4.90;;;2.08;;
69629;SDS011;56857;52.212;5.496;2022-07-23T08:16:04;4.70;;;2.03;;
69629;SDS011;56857;52.212;5.496;2022-07-23T08:18:29;5.82;;;2.25;;
69629;SDS011;56857;52.212;5.496;2022-07-23T08:20:54;6.65;;;2.28;;
69629;SDS011;56857;52.212;5.496;2022-07-23T08:23:20;5.38;;;2.35;;
69629;SDS011;56857;52.212;5.496;2022-07-23T08:25:45;5.30;;;2.00;;
69629;SDS011;56857;52.212;5.496;2022-07-23T08:28:11;5.15;;;1.80;;
69629;SDS011;56857;52.212;5.496;2022-07-23T08:30:39;5.10;;;1.83;;
69629;SDS011;56857;52.212;5.496;2022-07-23T08:33:08;3.78;;;1.80;;
69629;SDS011;56857;52.212;5.496;2022-07-23T08:35:36;7.82;;;2.00;;
69629;SDS011;56857;52.212;5.496;2022-07-23T08:38:04;6.60;;;2.00;;
69629;SDS011;56857;52.212;5.496;2022-07-23T08:40:32;5.68;;;2.20;;
69629;SDS011;56857;52.212;5.496;2022-07-23T08:43:00;4.78;;;2.55;;
69629;SDS011;56857;52.212;5.496;2022-07-23T08:45:30;4.78;;;1.77;;
69629;SDS011;56857;52.212;5.496;2022-07-23T08:47:56;4.60;;;2.03;;
69629;SDS011;56857;52.212;5.496;2022-07-23T08:50:22;6.55;;;1.92;;
69629;SDS011;56857;52.212;5.496;2022-07-23T08:52:49;4.70;;;1.83;;
69629;SDS011;56857;52.212;5.496;2022-07-23T08:55:18;5.65;;;1.95;;
69629;SDS011;56857;52.212;5.496;2022-07-23T08:57:49;7.03;;;2.10;;
69629;SDS011;56857;52.212;5.496;2022-07-23T09:00:16;6.93;;;1.80;;
69629;SDS011;56857;52.212;5.496;2022-07-23T09:02:43;4.97;;;1.60;;
69629;SDS011;56857;52.212;5.496;2022-07-23T09:05:09;4.43;;;1.70;;
69629;SDS011;56857;52.212;5.496;2022-07-23T09:07:37;3.25;;;1.70;;
69629;SDS011;56857;52.212;5.496;2022-07-23T09:10:22;3.67;;;1.88;;
69629;SDS011;56857;52.212;5.496;2022-07-23T09:12:47;4.40;;;1.42;;
69629;SDS011;56857;52.212;5.496;2022-07-23T09:15:13;4.57;;;1.75;;
69629;SDS011;56857;52.212;5.496;2022-07-23T09:17:40;7.35;;;2.22;;
69629;SDS011;56857;52.212;5.496;2022-07-23T09:20:10;4.00;;;1.70;;
69629;SDS011;56857;52.212;5.496;2022-07-23T09:22:38;4.65;;;2.15;;
69629;SDS011;56857;52.212;5.496;2022-07-23T09:25:11;4.68;;;2.05;;
69629;SDS011;56857;52.212;5.496;2022-07-23T09:30:17;3.65;;;1.40;;
69629;SDS011;56857;52.212;5.496;2022-07-23T09:32:42;3.75;;;1.38;;
69629;SDS011;56857;52.212;5.496;2022-07-23T09:35:08;4.63;;;1.35;;
69629;SDS011;56857;52.212;5.496;2022-07-23T09:37:33;4.35;;;1.60;;
69629;SDS011;56857;52.212;5.496;2022-07-23T09:40:06;4.93;;;1.40;;
69629;SDS011;56857;52.212;5.496;2022-07-23T09:42:35;3.47;;;1.55;;
69629;SDS011;56857;52.212;5.496;2022-07-23T09:45:00;3.97;;;1.42;;
69629;SDS011;56857;52.212;5.496;2022-07-23T09:47:27;4.20;;;1.35;;
69629;SDS011;56857;52.212;5.496;2022-07-23T09:52:34;5.22;;;1.65;;
69629;SDS011;56857;52.212;5.496;2022-07-23T09:55:07;2.90;;;1.35;;
69629;SDS011;56857;52.212;5.496;2022-07-23T09:57:33;5.65;;;1.30;;
69629;SDS011;56857;52.212;5.496;2022-07-23T10:00:02;5.22;;;1.58;;
69629;SDS011;56857;52.212;5.496;2022-07-23T10:02:29;3.72;;;1.40;;
69629;SDS011;56857;52.212;5.496;2022-07-23T10:04:58;5.03;;;1.60;;
69629;SDS011;56857;52.212;5.496;2022-07-23T10:07:26;4.72;;;1.58;;
69629;SDS011;56857;52.212;5.496;2022-07-23T10:09:51;6.50;;;2.20;;
69629;SDS011;56857;52.212;5.496;2022-07-23T10:12:17;4.95;;;1.70;;
69629;SDS011;56857;52.212;5.496;2022-07-23T10:14:44;3.45;;;1.40;;
69629;SDS011;56857;52.212;5.496;2022-07-23T10:17:09;8.27;;;1.73;;
69629;SDS011;56857;52.212;5.496;2022-07-23T10:19:35;3.42;;;1.50;;
69629;SDS011;56857;52.212;5.496;2022-07-23T10:22:02;5.00;;;1.30;;
69629;SDS011;56857;52.212;5.496;2022-07-23T10:36:44;2.78;;;1.35;;
69629;SDS011;56857;52.212;5.496;2022-07-23T10:39:17;3.50;;;1.30;;
69629;SDS011;56857;52.212;5.496;2022-07-23T10:41:46;3.88;;;1.20;;
69629;SDS011;56857;52.212;5.496;2022-07-23T10:44:13;4.53;;;1.30;;
69629;SDS011;56857;52.212;5.496;2022-07-23T10:46:58;3.65;;;1.17;;
69629;SDS011;56857;52.212;5.496;2022-07-23T10:57:08;6.75;;;1.40;;
69629;SDS011;56857;52.212;5.496;2022-07-23T11:02:25;5.75;;;1.50;;
69629;SDS011;56857;52.212;5.496;2022-07-23T11:04:53;2.67;;;1.15;;
69629;SDS011;56857;52.212;5.496;2022-07-23T11:07:19;3.72;;;1.30;;
69629;SDS011;56857;52.212;5.496;2022-07-23T11:09:45;3.85;;;1.30;;
69629;SDS011;56857;52.212;5.496;2022-07-23T11:14:58;4.95;;;1.48;;
69629;SDS011;56857;52.212;5.496;2022-07-23T11:17:40;3.53;;;1.25;;
69629;SDS011;56857;52.212;5.496;2022-07-23T11:20:23;3.60;;;1.25;;
69629;SDS011;56857;52.212;5.496;2022-07-23T11:22:50;5.57;;;1.60;;
69629;SDS011;56857;52.212;5.496;2022-07-23T11:27:47;4.22;;;1.67;;
69629;SDS011;56857;52.212;5.496;2022-07-23T11:30:37;3.55;;;1.30;;
69629;SDS011;56857;52.212;5.496;2022-07-23T11:35:32;4.28;;;1.45;;
69629;SDS011;56857;52.212;5.496;2022-07-23T11:38:07;3.05;;;1.33;;
69629;SDS011;56857;52.212;5.496;2022-07-23T11:40:46;3.55;;;1.23;;
69629;SDS011;56857;52.212;5.496;2022-07-23T11:43:14;3.05;;;1.27;;
69629;SDS011;56857;52.212;5.496;2022-07-23T11:45:46;3.25;;;1.27;;
69629;SDS011;56857;52.212;5.496;2022-07-23T11:50:45;3.05;;;1.48;;
69629;SDS011;56857;52.212;5.496;2022-07-23T11:53:10;4.70;;;1.55;;
69629;SDS011;56857;52.212;5.496;2022-07-23T11:55:36;5.18;;;1.42;;
69629;SDS011;56857;52.212;5.496;2022-07-23T11:58:02;5.57;;;1.48;;
69629;SDS011;56857;52.212;5.496;2022-07-23T12:00:28;3.78;;;1.33;;
69629;SDS011;56857;52.212;5.496;2022-07-23T12:02:56;3.97;;;1.20;;
69629;SDS011;56857;52.212;5.496;2022-07-23T12:05:32;4.00;;;1.48;;
69629;SDS011;56857;52.212;5.496;2022-07-23T12:08:00;3.17;;;1.40;;
69629;SDS011;56857;52.212;5.496;2022-07-23T12:10:33;3.88;;;1.27;;
69629;SDS011;56857;52.212;5.496;2022-07-23T12:13:09;2.25;;;1.13;;
69629;SDS011;56857;52.212;5.496;2022-07-23T12:15:38;3.42;;;1.50;;
69629;SDS011;56857;52.212;5.496;2022-07-23T12:18:06;4.15;;;1.63;;
69629;SDS011;56857;52.212;5.496;2022-07-23T12:20:35;4.28;;;1.55;;
69629;SDS011;56857;52.212;5.496;2022-07-23T12:23:03;4.03;;;1.60;;
69629;SDS011;56857;52.212;5.496;2022-07-23T12:25:31;3.55;;;1.40;;
69629;SDS011;56857;52.212;5.496;2022-07-23T12:28:09;5.03;;;1.60;;
69629;SDS011;56857;52.212;5.496;2022-07-23T12:30:40;4.60;;;1.80;;
69629;SDS011;56857;52.212;5.496;2022-07-23T12:33:06;4.40;;;1.65;;
69629;SDS011;56857;52.212;5.496;2022-07-23T12:35:37;3.53;;;1.63;;
69629;SDS011;56857;52.212;5.496;2022-07-23T12:38:11;4.18;;;1.58;;
69629;SDS011;56857;52.212;5.496;2022-07-23T12:40:43;4.53;;;1.50;;
69629;SDS011;56857;52.212;5.496;2022-07-23T12:43:11;4.90;;;1.60;;
69629;SDS011;56857;52.212;5.496;2022-07-23T12:45:52;4.40;;;1.65;;
69629;SDS011;56857;52.212;5.496;2022-07-23T12:48:31;4.40;;;1.52;;
69629;SDS011;56857;52.212;5.496;2022-07-23T12:51:02;6.35;;;1.75;;
69629;SDS011;56857;52.212;5.496;2022-07-23T12:58:41;4.28;;;1.70;;
69629;SDS011;56857;52.212;5.496;2022-07-23T13:03:41;4.35;;;1.63;;
69629;SDS011;56857;52.212;5.496;2022-07-23T13:06:08;3.40;;;1.45;;
69629;SDS011;56857;52.212;5.496;2022-07-23T13:08:36;4.15;;;1.48;;
69629;SDS011;56857;52.212;5.496;2022-07-23T13:11:03;3.45;;;1.45;;
69629;SDS011;56857;52.212;5.496;2022-07-23T13:13:30;4.25;;;1.77;;
69629;SDS011;56857;52.212;5.496;2022-07-23T13:15:56;5.38;;;1.73;;
69629;SDS011;56857;52.212;5.496;2022-07-23T13:18:23;4.82;;;1.85;;
69629;SDS011;56857;52.212;5.496;2022-07-23T13:20:49;5.03;;;2.08;;
69629;SDS011;56857;52.212;5.496;2022-07-23T13:23:15;5.65;;;1.75;;
69629;SDS011;56857;52.212;5.496;2022-07-23T13:25:41;4.63;;;2.20;;
69629;SDS011;56857;52.212;5.496;2022-07-23T13:28:07;3.78;;;1.60;;
69629;SDS011;56857;52.212;5.496;2022-07-23T13:30:33;6.25;;;1.60;;
69629;SDS011;56857;52.212;5.496;2022-07-23T13:32:58;4.45;;;1.67;;
69629;SDS011;56857;52.212;5.496;2022-07-23T13:35:24;4.63;;;1.67;;
69629;SDS011;56857;52.212;5.496;2022-07-23T13:37:50;4.18;;;1.83;;
69629;SDS011;56857;52.212;5.496;2022-07-23T13:40:15;4.38;;;1.80;;
69629;SDS011;56857;52.212;5.496;2022-07-23T13:42:41;4.82;;;1.45;;
69629;SDS011;56857;52.212;5.496;2022-07-23T13:45:07;3.92;;;1.60;;
69629;SDS011;56857;52.212;5.496;2022-07-23T13:47:33;4.85;;;1.65;;
69629;SDS011;56857;52.212;5.496;2022-07-23T13:49:58;6.20;;;1.77;;
69629;SDS011;56857;52.212;5.496;2022-07-23T13:52:24;5.35;;;1.88;;
69629;SDS011;56857;52.212;5.496;2022-07-23T13:54:50;4.43;;;1.88;;
69629;SDS011;56857;52.212;5.496;2022-07-23T13:57:16;5.18;;;1.60;;
69629;SDS011;56857;52.212;5.496;2022-07-23T13:59:42;3.60;;;1.70;;
69629;SDS011;56857;52.212;5.496;2022-07-23T14:02:07;5.60;;;1.92;;
69629;SDS011;56857;52.212;5.496;2022-07-23T14:04:33;5.65;;;2.15;;
69629;SDS011;56857;52.212;5.496;2022-07-23T14:06:59;4.53;;;1.75;;
69629;SDS011;56857;52.212;5.496;2022-07-23T14:09:24;3.85;;;1.60;;
69629;SDS011;56857;52.212;5.496;2022-07-23T14:11:50;6.22;;;1.70;;
69629;SDS011;56857;52.212;5.496;2022-07-23T14:14:16;4.05;;;1.80;;
69629;SDS011;56857;52.212;5.496;2022-07-23T14:16:42;5.70;;;1.92;;
69629;SDS011;56857;52.212;5.496;2022-07-23T14:19:08;5.65;;;2.03;;
69629;SDS011;56857;52.212;5.496;2022-07-23T14:21:34;4.30;;;1.58;;
69629;SDS011;56857;52.212;5.496;2022-07-23T14:23:59;6.57;;;2.55;;
69629;SDS011;56857;52.212;5.496;2022-07-23T14:26:25;5.53;;;1.90;;
69629;SDS011;56857;52.212;5.496;2022-07-23T14:28:50;5.78;;;1.80;;
69629;SDS011;56857;52.212;5.496;2022-07-23T14:31:16;5.82;;;2.33;;
69629;SDS011;56857;52.212;5.496;2022-07-23T14:33:41;4.80;;;1.80;;
69629;SDS011;56857;52.212;5.496;2022-07-23T14:36:07;5.40;;;2.55;;
69629;SDS011;56857;52.212;5.496;2022-07-23T14:38:32;5.05;;;1.75;;
69629;SDS011;56857;52.212;5.496;2022-07-23T14:40:57;4.90;;;1.80;;
69629;SDS011;56857;52.212;5.496;2022-07-23T14:43:23;5.30;;;1.85;;
69629;SDS011;56857;52.212;5.496;2022-07-23T14:45:48;3.85;;;1.80;;
69629;SDS011;56857;52.212;5.496;2022-07-23T14:48:14;4.68;;;1.90;;
69629;SDS011;56857;52.212;5.496;2022-07-23T14:50:39;4.60;;;1.90;;
69629;SDS011;56857;52.212;5.496;2022-07-23T14:53:05;5.57;;;2.10;;
69629;SDS011;56857;52.212;5.496;2022-07-23T14:55:31;4.70;;;2.20;;
69629;SDS011;56857;52.212;5.496;2022-07-23T14:57:57;4.07;;;1.75;;
69629;SDS011;56857;52.212;5.496;2022-07-23T15:00:22;5.50;;;2.08;;
69629;SDS011;56857;52.212;5.496;2022-07-23T15:02:47;5.82;;;2.00;;
69629;SDS011;56857;52.212;5.496;2022-07-23T15:05:13;6.45;;;2.10;;
69629;SDS011;56857;52.212;5.496;2022-07-23T15:07:38;4.57;;;2.00;;
69629;SDS011;56857;52.212;5.496;2022-07-23T15:10:03;4.57;;;2.00;;
69629;SDS011;56857;52.212;5.496;2022-07-23T15:12:29;5.30;;;2.15;;
69629;SDS011;56857;52.212;5.496;2022-07-23T15:14:54;4.53;;;2.00;;
69629;SDS011;56857;52.212;5.496;2022-07-23T15:17:20;7.00;;;2.05;;
69629;SDS011;56857;52.212;5.496;2022-07-23T15:19:45;4.90;;;2.05;;
69629;SDS011;56857;52.212;5.496;2022-07-23T15:22:12;4.80;;;1.90;;
69629;SDS011;56857;52.212;5.496;2022-07-23T15:24:37;4.75;;;1.88;;
69629;SDS011;56857;52.212;5.496;2022-07-23T15:27:02;6.00;;;1.88;;
69629;SDS011;56857;52.212;5.496;2022-07-23T15:29:28;4.18;;;1.88;;
69629;SDS011;56857;52.212;5.496;2022-07-23T15:31:53;2.88;;;1.60;;